X  Luk Metar data     EKYT Aalborg Airport
Temperatur
17°C Temperatur
13°C Duggpunkt
77% Fugtighed



Vind
3 M/S
6 MPT
10 KM/T
5 KNOB



120°
ØSØ
Nuværende forhold

Klart Klart
Tryk 1018.92 (hPa) - 30.09 (inHg)
Sigt 6.2 (mil) - 10 (km)
Lufthavn
Lufthavnskode EKYT

Lokation: Aalborg Airport
Afstand: 54 (km)

Metar:
EKYT 122050Z AUTO 12005KT 9999 NCD 17/13 Q1019

Tid: 12-08-2020 22:50 CEST